Polaris — JD2797 — position and weather

sailwx.info

Track history (hours):
 
Tides and Currents Weather Stations Pressure Air Temp Water Temp Dewpoint Dewpoint Depression Visibility Wind Speed Wind Dir Waves Ship Positions

Polaris

Last reported at 2017-Jan-20 15:33 UTC. Time now 2017-Jan-20 16:09 UTC.
Position N 35°24' E 139°38'.

Length 30 m; draft 2.6 m.

Type: Pilot. MMSI: 431000764.

Date/timePositionNaut miles runAvg speedWind from/ knotsBaromVisibWave heightAir tempDewpointWater temp
2017-Jan-20 15:33N 35°24' E 139°38'0 0.1
2017-Jan-20 14:33N 35°24' E 139°38'0 0.2
2017-Jan-20 13:33N 35°24' E 139°38'0 0.1
2017-Jan-20 12:33N 35°24' E 139°38'0 0.1
2017-Jan-20 11:34N 35°24' E 139°38'0 0.1
2017-Jan-20 10:34N 35°24' E 139°38'0 0.0
2017-Jan-20 09:33N 35°24' E 139°38'0 0.1
2017-Jan-20 08:33N 35°24' E 139°38'0 0.2
2017-Jan-20 07:33N 35°24' E 139°38'0 0.1
2017-Jan-20 06:33N 35°24' E 139°38'0 0.1
2017-Jan-20 05:33N 35°24' E 139°38'0 0.0
2017-Jan-20 04:33N 35°24' E 139°38'0 0.1
2017-Jan-20 03:33N 35°24' E 139°38'2 1.7
2017-Jan-20 02:34N 35°24' E 139°40'2 1.6
2017-Jan-20 01:33N 35°22' E 139°41'4 4.2
2017-Jan-20 00:33N 35°19' E 139°38'5 0.1
2017-Jan-18 00:33N 35°22' E 139°44'2 2.4
2017-Jan-17 23:33N 35°19' E 139°44'6 4.4
2017-Jan-17 22:10N 35°13' E 139°46'712.1
2017-Jan-17 21:33N 35°19' E 139°40'1 1.2
2017-Jan-17 20:33N 35°19' E 139°38'0 0.0
2017-Jan-17 19:33N 35°19' E 139°38'0 0.0
2017-Jan-17 18:32N 35°19' E 139°38'0 0.0
2017-Jan-17 17:12N 35°19' E 139°38'0 0.0
2017-Jan-17 16:32N 35°19' E 139°38'0 0.0
2017-Jan-17 15:31N 35°19' E 139°38'0 0.0
2017-Jan-17 14:33N 35°19' E 139°38'0 0.0
2017-Jan-17 13:33N 35°19' E 139°38'0 0.0
2017-Jan-17 12:29N 35°19' E 139°38'0 0.0
2017-Jan-17 11:30N 35°19' E 139°38'0 0.0
2017-Jan-17 10:16N 35°19' E 139°38'911.9
2017-Jan-17 09:32N 35°12' E 139°46'1212.2
2017-Jan-17 08:34N 35°24' E 139°43'2 2.1
2017-Jan-17 07:33N 35°22' E 139°42'4 2.9
2017-Jan-17 06:03N 35°19' E 139°38'0 0.0
2017-Jan-17 05:25N 35°19' E 139°38'0 0.0
2017-Jan-17 04:33N 35°19' E 139°38'0 0.0
2017-Jan-17 03:33N 35°19' E 139°38'0 0.0
2017-Jan-17 02:26N 35°19' E 139°38'0 0.0
2017-Jan-17 01:29N 35°19' E 139°38'0 0.0
2017-Jan-17 00:32N 35°19' E 139°38'0 0.0
2017-Jan-16 23:33N 35°19' E 139°38'0 0.0
2017-Jan-15 05:33N 35°19' E 139°38'7 7.3
2017-Jan-15 04:33N 35°15' E 139°46'1111.0
2017-Jan-15 03:33N 35°26' E 139°45'9 2.2
2017-Jan-14 23:29N 35°31' E 139°55'6 5.9
2017-Jan-14 22:33N 35°30' E 139°48'3 3.4
2017-Jan-14 21:34N 35°31' E 139°44'8 7.6
2017-Jan-14 20:34N 35°23' E 139°42'6 5.5
2017-Jan-14 19:33N 35°19' E 139°38'0 0.0
2017-Jan-14 06:32N 35°19' E 139°38'8 8.3
2017-Jan-14 05:30N 35°13' E 139°46'1111.6
2017-Jan-14 04:33N 35°24' E 139°43'8 6.5
2017-Jan-14 03:23N 35°22' E 139°52'12 0.3
2017-Jan-12 14:15N 35°19' E 139°38'4 6.5
2017-Jan-12 13:33N 35°21' E 139°43'1110.4
2017-Jan-12 12:28N 35°10' E 139°47'7 7.5
2017-Jan-12 11:33N 35°17' E 139°44'5 0.2
2017-Jan-11 06:33N 35°18' E 139°39'8 8.2
2017-Jan-11 05:34N 35°27' E 139°40'7 6.8
2017-Jan-11 04:34N 35°21' E 139°45'4 1.7
2017-Jan-11 02:33N 35°18' E 139°43'4 3.8
2017-Jan-11 01:31N 35°19' E 139°38'0 0.0
2017-Jan-11 00:32N 35°19' E 139°38'0 0.0
2017-Jan-10 23:32N 35°19' E 139°38'  
Track history (hours):
 
Tides and Currents Weather Stations Pressure Air Temp Water Temp Dewpoint Dewpoint Depression Visibility Wind Speed Wind Dir Waves Ship Positions

Polaris

Last reported at 2017-Jan-20 15:33 UTC. Time now 2017-Jan-20 16:09 UTC.
Position N 35°24' E 139°38'.

Length 30 m; draft 2.6 m.

Type: Pilot. MMSI: 431000764.

Date/timePositionNaut miles runAvg speedWind from/ knotsBaromVisibWave heightAir tempDewpointWater temp
2017-Jan-20 15:33N 35°24' E 139°38'0 0.1
2017-Jan-20 14:33N 35°24' E 139°38'0 0.2
2017-Jan-20 13:33N 35°24' E 139°38'0 0.1
2017-Jan-20 12:33N 35°24' E 139°38'0 0.1
2017-Jan-20 11:34N 35°24' E 139°38'0 0.1
2017-Jan-20 10:34N 35°24' E 139°38'0 0.0
2017-Jan-20 09:33N 35°24' E 139°38'0 0.1
2017-Jan-20 08:33N 35°24' E 139°38'0 0.2
2017-Jan-20 07:33N 35°24' E 139°38'0 0.1
2017-Jan-20 06:33N 35°24' E 139°38'0 0.1
2017-Jan-20 05:33N 35°24' E 139°38'0 0.0
2017-Jan-20 04:33N 35°24' E 139°38'0 0.1
2017-Jan-20 03:33N 35°24' E 139°38'2 1.7
2017-Jan-20 02:34N 35°24' E 139°40'2 1.6
2017-Jan-20 01:33N 35°22' E 139°41'4 4.2
2017-Jan-20 00:33N 35°19' E 139°38'5 0.1
2017-Jan-18 00:33N 35°22' E 139°44'2 2.4
2017-Jan-17 23:33N 35°19' E 139°44'6 4.4
2017-Jan-17 22:10N 35°13' E 139°46'712.1
2017-Jan-17 21:33N 35°19' E 139°40'1 1.2
2017-Jan-17 20:33N 35°19' E 139°38'0 0.0
2017-Jan-17 19:33N 35°19' E 139°38'0 0.0
2017-Jan-17 18:32N 35°19' E 139°38'0 0.0
2017-Jan-17 17:12N 35°19' E 139°38'0 0.0
2017-Jan-17 16:32N 35°19' E 139°38'0 0.0
2017-Jan-17 15:31N 35°19' E 139°38'0 0.0
2017-Jan-17 14:33N 35°19' E 139°38'0 0.0
2017-Jan-17 13:33N 35°19' E 139°38'0 0.0
2017-Jan-17 12:29N 35°19' E 139°38'0 0.0
2017-Jan-17 11:30N 35°19' E 139°38'0 0.0
2017-Jan-17 10:16N 35°19' E 139°38'911.9
2017-Jan-17 09:32N 35°12' E 139°46'1212.2
2017-Jan-17 08:34N 35°24' E 139°43'2 2.1
2017-Jan-17 07:33N 35°22' E 139°42'4 2.9
2017-Jan-17 06:03N 35°19' E 139°38'0 0.0
2017-Jan-17 05:25N 35°19' E 139°38'0 0.0
2017-Jan-17 04:33N 35°19' E 139°38'0 0.0
2017-Jan-17 03:33N 35°19' E 139°38'0 0.0
2017-Jan-17 02:26N 35°19' E 139°38'0 0.0
2017-Jan-17 01:29N 35°19' E 139°38'0 0.0
2017-Jan-17 00:32N 35°19' E 139°38'0 0.0
2017-Jan-16 23:33N 35°19' E 139°38'0 0.0
2017-Jan-15 05:33N 35°19' E 139°38'7 7.3
2017-Jan-15 04:33N 35°15' E 139°46'1111.0
2017-Jan-15 03:33N 35°26' E 139°45'9 2.2
2017-Jan-14 23:29N 35°31' E 139°55'6 5.9
2017-Jan-14 22:33N 35°30' E 139°48'3 3.4
2017-Jan-14 21:34N 35°31' E 139°44'8 7.6
2017-Jan-14 20:34N 35°23' E 139°42'6 5.5
2017-Jan-14 19:33N 35°19' E 139°38'0 0.0
2017-Jan-14 06:32N 35°19' E 139°38'8 8.3
2017-Jan-14 05:30N 35°13' E 139°46'1111.6
2017-Jan-14 04:33N 35°24' E 139°43'8 6.5
2017-Jan-14 03:23N 35°22' E 139°52'12 0.3
2017-Jan-12 14:15N 35°19' E 139°38'4 6.5
2017-Jan-12 13:33N 35°21' E 139°43'1110.4
2017-Jan-12 12:28N 35°10' E 139°47'7 7.5
2017-Jan-12 11:33N 35°17' E 139°44'5 0.2
2017-Jan-11 06:33N 35°18' E 139°39'8 8.2
2017-Jan-11 05:34N 35°27' E 139°40'7 6.8
2017-Jan-11 04:34N 35°21' E 139°45'4 1.7
2017-Jan-11 02:33N 35°18' E 139°43'4 3.8
2017-Jan-11 01:31N 35°19' E 139°38'0 0.0
2017-Jan-11 00:32N 35°19' E 139°38'0 0.0
2017-Jan-10 23:32N 35°19' E 139°38'  

Dump ship's entire track history